Juneau, AK

2:51 PM AKST on February 13, 2016 (GMT -0900)
Juneau International | | Change Station
CLOSE
Current Station
Airport
Location: Juneau,
Elevation: 23 ft
Nearby Weather Stations

Elev 23 ft 58.35 °N, 134.58 °W | Updated 58 minutes ago

Overcast
Overcast
46 °F
Feels Like 41 °F
N
9
Wind Variable Wind from ESE

Today
High -- | Low -- °F
--% Chance of Precip.
Yesterday
High -- | Low -- °F
Precip. -- in
Pressure 29.66 in
Visibility 10.0 miles
Clouds Mostly Cloudy 4500 ft
Mostly Cloudy 8500 ft
Overcast 22000 ft
Windchill 41 °F
Dew Point 38 °F
Humidity 73%
Rainfall 0.02 in
Snow Depth Not available.
7:36 AM 4:49 PM
Waxing Crescent, 35% visible
METAR PAJN 132253Z 12008KT 10SM BKN045 BKN085 OVC220 08/03 A2965 RMK AO2 SLP042 BINOVC T00780033
Pressure 29.66 in
Visibility 10.0 miles
Clouds Mostly Cloudy 4500 ft
Mostly Cloudy 8500 ft
Overcast 22000 ft
Windchill 41 °F
Dew Point 38 °F
Humidity 73%
Rainfall 0.02 in
Snow Depth Not available.
7:36 AM 4:49 PM
Waxing Crescent, 35% visible
METAR PAJN 132253Z 12008KT 10SM BKN045 BKN085 OVC220 08/03 A2965 RMK AO2 SLP042 BINOVC T00780033

10-Day Weather Forecast

Almanac

Astronomy

Feb. 13, 2016 Rise Set
Actual Time
Civil Twilight
Nautical Twilight
Astronomical Twilight
Moon
Length of Visible Light
Length of Day
Tomorrow will be .
, % of the Moon is Illuminated

Today's Extremes

State Highs State Lows

Community

WunderPhotos

Upload Photos

1,892,705 photos uploaded!

WunderBlog® & News

Nearby

Air Quality

  Air Quality AQ Index Pollutant
Not available.

Snow Depth

Station Depth Elevation

Earthquake Activity

City Distance Mag. Time & Date
Minimum magnitude displayed is 2.5.

Coastal Water Temperatures

Place Temperature

Stations

Nearby Weather Stations

Station Location Temp. Windchill Dew Point Humidity Wind Precip. Elev Updated Type
                   

Watches & Warnings

There are currently no watches in effect.